Terminal Aerodrome Forecast
Issued by NWS Cleveland, OH

Home | Current Version | Previous Version | Graphics & Text | Print | Product List | Glossary On
Versions: 1 2 3 4 5 6 7 8 9 10 11 12 13 14 15 16 17 18 19 20 21 22 23 24 25 26
000
FTUS41 KCLE 241300 AAA
TAFCAK
TAF AMD
KCAK 241330Z 2414/2512 27006KT 2SM BR OVC004
     FM241500 27006KT 4SM BR OVC006
     FM241700 25010KT P6SM OVC012
     FM250100 23006KT P6SM OVC015=

USA.gov is the U.S. government's official web portal to all federal, state and local government web resources and services.